createdAt,value
2018-05-23T00:02:04.166Z,30.30
2018-05-23T00:04:48.899Z,30.13
2018-05-23T00:07:17.564Z,31.93
2018-05-23T00:09:48.100Z,30.40
2018-05-23T00:12:19.850Z,30.10
2018-05-23T00:14:54.090Z,35.27
2018-05-23T00:17:25.850Z,37.37
2018-05-23T00:19:53.360Z,39.13
2018-05-23T00:22:27.188Z,43.83
2018-05-23T00:24:55.886Z,40.60
2018-05-23T00:27:28.041Z,43.17
2018-05-23T00:29:59.736Z,41.03
2018-05-23T00:32:29.357Z,33.30
2018-05-23T00:35:02.912Z,30.23
2018-05-23T00:37:30.431Z,24.23
2018-05-23T00:39:58.501Z,23.27
2018-05-23T00:42:28.108Z,19.03
2018-05-23T00:45:02.608Z,17.27
2018-05-23T00:47:30.133Z,16.63
2018-05-23T00:50:04.912Z,18.70
2018-05-23T00:52:33.598Z,16.50
2018-05-23T00:55:15.090Z,15.80
2018-05-23T00:57:43.579Z,14.67
2018-05-23T01:00:14.990Z,14.33
2018-05-23T01:02:44.336Z,15.50
2018-05-23T01:05:12.673Z,14.87
2018-05-23T01:07:41.767Z,15.10
2018-05-23T01:10:11.517Z,11.57
2018-05-23T01:12:39.941Z,14.00
2018-05-23T01:15:21.801Z,15.30
2018-05-23T01:17:53.001Z,13.97
2018-05-23T01:20:20.537Z,11.70
2018-05-23T01:22:48.227Z,11.93
2018-05-23T01:25:19.390Z,11.60
2018-05-23T01:27:46.909Z,12.33
2018-05-23T01:30:18.592Z,11.43
2018-05-23T01:32:48.326Z,10.90
2018-05-23T01:35:17.803Z,10.93
2018-05-23T01:37:48.658Z,11.90
2018-05-23T01:40:17.504Z,10.60
2018-05-23T01:42:46.444Z,9.87
2018-05-23T01:45:14.198Z,10.67
2018-05-23T01:47:52.500Z,11.00
2018-05-23T01:50:21.958Z,11.27
2018-05-23T01:52:51.750Z,9.50
2018-05-23T01:55:19.276Z,11.33
2018-05-23T01:57:47.976Z,10.20
2018-05-23T02:00:28.169Z,10.03
2018-05-23T02:02:56.707Z,10.03
2018-05-23T02:05:27.841Z,11.30
2018-05-23T02:07:58.398Z,13.33
2018-05-23T02:10:25.917Z,9.33
2018-05-23T02:12:54.583Z,8.50
2018-05-23T02:15:22.527Z,9.63
2018-05-23T02:17:51.036Z,9.90
2018-05-23T02:20:18.980Z,9.60
2018-05-23T02:22:46.942Z,8.57
2018-05-23T02:25:15.542Z,9.57
2018-05-23T02:27:44.201Z,7.27
2018-05-23T02:30:16.587Z,8.40
2018-05-23T02:32:53.876Z,7.43
2018-05-23T02:35:21.408Z,7.07
2018-05-23T02:38:00.112Z,7.50
2018-05-23T02:40:43.955Z,8.30
2018-05-23T02:43:13.536Z,7.27
2018-05-23T02:45:44.768Z,6.43
2018-05-23T02:48:13.393Z,7.30
2018-05-23T02:50:44.168Z,7.67
2018-05-23T02:53:11.670Z,6.90
2018-05-23T02:55:45.477Z,8.17
2018-05-23T02:58:12.980Z,7.90
2018-05-23T03:00:40.860Z,7.33
2018-05-23T03:03:08.516Z,4.90
2018-05-23T03:05:37.259Z,5.93
2018-05-23T03:08:05.874Z,6.33
2018-05-23T03:10:39.267Z,6.80
2018-05-23T03:13:10.690Z,6.27
2018-05-23T03:15:40.688Z,5.80
2018-05-23T03:18:17.238Z,6.07
2018-05-23T03:20:45.084Z,7.33
2018-05-23T03:23:16.450Z,9.13
2018-05-23T03:25:43.973Z,6.77
2018-05-23T03:28:16.062Z,7.40
2018-05-23T03:30:44.904Z,9.77
2018-05-23T03:33:12.410Z,7.93
2018-05-23T03:35:39.904Z,8.57
2018-05-23T03:38:07.456Z,9.63
2018-05-23T03:40:35.110Z,11.33
2018-05-23T03:43:02.874Z,11.70
2018-05-23T03:45:30.392Z,12.53
2018-05-23T03:47:58.092Z,13.97
2018-05-23T03:50:25.602Z,13.30
2018-05-23T03:52:55.214Z,17.10
2018-05-23T03:55:25.765Z,15.90
2018-05-23T03:57:55.002Z,17.97
2018-05-23T04:00:40.207Z,21.30
2018-05-23T04:03:20.468Z,21.90
2018-05-23T04:05:59.866Z,25.97
2018-05-23T04:08:27.547Z,24.37
2018-05-23T04:11:01.155Z,29.07
2018-05-23T04:13:28.708Z,28.57
2018-05-23T04:15:56.890Z,38.27
2018-05-23T04:18:28.560Z,36.83
2018-05-23T04:20:58.096Z,46.60
2018-05-23T04:23:33.164Z,48.77
2018-05-23T04:26:05.310Z,51.17
2018-05-23T04:28:54.066Z,56.63
2018-05-23T04:31:33.655Z,58.13
2018-05-23T04:34:19.179Z,69.70
2018-05-23T04:37:01.732Z,83.03
2018-05-23T04:39:29.254Z,94.93
2018-05-23T04:42:11.206Z,108.23
2018-05-23T04:44:42.587Z,126.50
2018-05-23T04:47:12.180Z,136.53
2018-05-23T04:49:52.279Z,143.70
2018-05-23T04:52:20.230Z,144.90
2018-05-23T04:54:49.900Z,135.33
2018-05-23T04:57:17.466Z,131.93
2018-05-23T04:59:45.778Z,129.00
2018-05-23T05:02:21.490Z,134.37
2018-05-23T05:05:00.009Z,123.80
2018-05-23T05:07:33.340Z,123.60
2018-05-23T05:10:03.944Z,126.40
2018-05-23T05:12:31.605Z,134.77
2018-05-23T05:15:03.074Z,125.30
2018-05-23T05:17:31.762Z,126.73
2018-05-23T05:20:00.448Z,126.33
2018-05-23T05:22:40.769Z,123.17
2018-05-23T05:25:08.285Z,113.53
2018-05-23T05:27:37.911Z,118.20
2018-05-23T05:30:12.730Z,116.93
2018-05-23T05:32:45.354Z,107.93
2018-05-23T05:35:18.428Z,104.17
2018-05-23T05:37:47.164Z,97.70
2018-05-23T05:40:14.809Z,96.17
2018-05-23T05:42:46.664Z,101.77
2018-05-23T05:45:25.975Z,99.70
2018-05-23T05:48:07.594Z,103.77
2018-05-23T05:50:41.598Z,95.23
2018-05-23T05:53:20.441Z,98.60
2018-05-23T05:56:06.809Z,96.97
2018-05-23T05:58:34.570Z,92.97
2018-05-23T06:01:06.036Z,90.03
2018-05-23T06:03:40.544Z,80.13
2018-05-23T06:06:10.210Z,73.47
2018-05-23T06:08:38.006Z,77.03
2018-05-23T06:11:05.725Z,70.83
2018-05-23T06:13:37.766Z,70.13
2018-05-23T06:16:15.388Z,64.27
2018-05-23T06:18:44.970Z,67.33
2018-05-23T06:21:14.649Z,63.33
2018-05-23T06:23:42.493Z,58.73
2018-05-23T06:26:11.999Z,62.37
2018-05-23T06:28:40.693Z,59.77
2018-05-23T06:31:10.367Z,58.07
2018-05-23T06:33:38.054Z,51.20
2018-05-23T06:36:05.807Z,47.73
2018-05-23T06:41:38.132Z,51.97
2018-05-23T06:44:16.717Z,44.07
2018-05-23T06:46:46.788Z,47.03
2018-05-23T06:49:14.402Z,45.97
2018-05-23T06:52:00.067Z,47.70
2018-05-23T06:54:45.808Z,43.03
2018-05-23T06:57:30.468Z,40.80
2018-05-23T07:00:02.878Z,43.97
2018-05-23T07:02:53.521Z,40.53
2018-05-23T07:05:26.589Z,41.40
2018-05-23T07:07:56.371Z,38.97
2018-05-23T07:10:24.075Z,39.00
2018-05-23T07:12:51.584Z,37.70
2018-05-23T07:15:19.331Z,39.77
2018-05-23T07:17:51.061Z,38.63
2018-05-23T07:20:24.615Z,39.93
2018-05-23T07:22:55.774Z,37.33
2018-05-23T07:25:25.649Z,35.97
2018-05-23T07:27:54.141Z,40.93
2018-05-23T07:30:34.429Z,36.50
2018-05-23T07:33:15.795Z,36.20
2018-05-23T07:35:48.181Z,34.83
2018-05-23T07:38:20.710Z,37.27
2018-05-23T07:40:49.189Z,35.00
2018-05-23T07:43:28.620Z,35.40
2018-05-23T07:46:00.470Z,33.77
2018-05-23T07:48:31.839Z,36.40
2018-05-23T07:51:03.132Z,31.63
2018-05-23T07:53:35.037Z,32.07
2018-05-23T07:56:05.881Z,33.83
2018-05-23T07:58:42.513Z,31.03
2018-05-23T08:01:12.168Z,34.37
2018-05-23T08:03:48.179Z,29.40
2018-05-23T08:06:21.520Z,30.80
2018-05-23T08:08:53.610Z,31.47
2018-05-23T08:11:34.499Z,31.53
2018-05-23T08:14:03.044Z,30.63
2018-05-23T08:16:49.699Z,30.87
2018-05-23T08:19:23.095Z,31.63
2018-05-23T08:21:56.095Z,30.93
2018-05-23T08:24:28.166Z,33.00
2018-05-23T08:27:00.178Z,31.20
2018-05-23T08:29:45.448Z,30.10
2018-05-23T08:32:25.147Z,32.83
2018-05-23T08:35:17.577Z,29.90
2018-05-23T08:37:58.983Z,30.17
2018-05-23T08:40:28.404Z,29.47
2018-05-23T08:43:03.232Z,27.43
2018-05-23T08:45:31.928Z,27.93
2018-05-23T08:47:59.428Z,28.63
2018-05-23T08:50:34.831Z,28.70
2018-05-23T08:53:05.970Z,26.30
2018-05-23T08:55:50.270Z,33.03
2018-05-23T08:58:17.797Z,27.33
2018-05-23T09:00:46.490Z,25.63
2018-05-23T09:03:14.000Z,27.33
2018-05-23T09:05:47.698Z,27.43
2018-05-23T09:08:25.682Z,28.07
2018-05-23T09:10:59.663Z,28.07
2018-05-23T09:13:31.120Z,27.23
2018-05-23T09:15:58.638Z,27.77
2018-05-23T09:18:27.256Z,24.93
2018-05-23T09:21:04.515Z,25.40
2018-05-23T09:23:43.030Z,27.33
2018-05-23T09:26:16.858Z,26.67
2018-05-23T09:28:49.378Z,27.17
2018-05-23T09:31:16.890Z,30.33
2018-05-23T09:33:54.529Z,25.87
2018-05-23T09:36:27.712Z,29.53
2018-05-23T09:39:06.074Z,30.27
2018-05-23T09:41:39.204Z,31.87
2018-05-23T09:44:19.234Z,29.13
2018-05-23T09:46:59.674Z,26.97
2018-05-23T09:49:30.830Z,29.73
2018-05-23T09:52:00.369Z,27.57
2018-05-23T09:54:27.871Z,27.97
2018-05-23T09:56:57.335Z,30.37
2018-05-23T09:59:25.828Z,26.80
2018-05-23T10:01:55.456Z,31.43
2018-05-23T10:04:23.267Z,30.30
2018-05-23T10:06:53.909Z,29.10
2018-05-23T10:09:21.415Z,29.80
2018-05-23T10:11:54.728Z,31.90
2018-05-23T10:14:27.166Z,32.97
2018-05-23T10:16:59.638Z,32.30
2018-05-23T10:19:27.166Z,31.30
2018-05-23T10:21:58.006Z,32.83
2018-05-23T10:24:35.732Z,31.70
2018-05-23T10:27:03.226Z,36.13
2018-05-23T10:29:30.736Z,31.67
2018-05-23T10:31:58.242Z,34.30
2018-05-23T10:34:25.872Z,35.77
2018-05-23T10:36:53.395Z,36.67
2018-05-23T10:39:21.098Z,33.33
2018-05-23T10:41:52.874Z,35.47
2018-05-23T10:44:28.262Z,33.37
2018-05-23T10:47:07.118Z,37.13
2018-05-23T10:49:41.057Z,32.47
2018-05-23T10:52:09.032Z,33.50
2018-05-23T10:54:38.426Z,31.73
2018-05-23T10:57:06.536Z,32.00
2018-05-23T10:59:36.083Z,33.57
2018-05-23T11:02:11.878Z,34.00
2018-05-23T11:04:41.467Z,30.63
2018-05-23T11:07:11.075Z,30.70
2018-05-23T11:09:46.198Z,37.67
2018-05-23T11:12:13.734Z,30.83
2018-05-23T11:14:50.003Z,29.63
2018-05-23T11:17:17.557Z,33.93
2018-05-23T11:19:49.652Z,32.67
2018-05-23T11:22:17.308Z,32.37
2018-05-23T11:24:44.808Z,34.53
2018-05-23T11:27:14.411Z,31.77
2018-05-23T11:29:42.705Z,31.37
2018-05-23T11:32:10.219Z,33.13
2018-05-23T11:37:35.309Z,31.57
2018-05-23T11:40:08.298Z,32.17
2018-05-23T11:42:42.425Z,34.70
2018-05-23T11:45:15.774Z,33.40
2018-05-23T11:47:44.470Z,33.43
2018-05-23T11:50:15.305Z,35.00
2018-05-23T11:52:53.755Z,33.13
2018-05-23T11:55:23.710Z,36.67
2018-05-23T11:57:58.498Z,35.03
2018-05-23T12:00:27.311Z,30.27
2018-05-23T12:03:06.014Z,29.83
2018-05-23T12:05:34.743Z,31.73
2018-05-23T12:08:07.438Z,32.03
2018-05-23T12:10:47.422Z,30.47
2018-05-23T12:13:14.956Z,33.10
2018-05-23T12:15:45.238Z,31.03
2018-05-23T12:18:12.960Z,29.77
2018-05-23T12:20:41.904Z,27.33
2018-05-23T12:23:11.534Z,30.80
2018-05-23T12:25:40.820Z,27.13
2018-05-23T12:28:10.422Z,28.83
2018-05-23T12:30:55.954Z,28.87
2018-05-23T12:33:44.012Z,29.20
2018-05-23T12:36:16.134Z,27.83
2018-05-23T12:38:51.526Z,28.10
2018-05-23T12:41:33.104Z,29.57
2018-05-23T12:44:00.617Z,34.37
2018-05-23T12:46:36.118Z,30.13
2018-05-23T12:49:09.376Z,30.67
2018-05-23T12:51:44.628Z,27.70
2018-05-23T12:54:13.186Z,28.80
2018-05-23T12:56:59.954Z,27.33
2018-05-23T12:59:27.460Z,27.83
2018-05-23T13:02:04.773Z,21.37
2018-05-23T13:04:33.446Z,20.97
2018-05-23T13:07:04.300Z,23.47
2018-05-23T13:09:38.080Z,20.10
2018-05-23T13:12:16.753Z,21.03
2018-05-23T13:14:48.788Z,21.80
2018-05-23T13:17:28.226Z,22.27
2018-05-23T13:20:02.162Z,21.63
2018-05-23T13:22:31.720Z,21.17
2018-05-23T13:25:05.039Z,22.87
2018-05-23T13:27:36.668Z,24.53
2018-05-23T13:30:04.276Z,25.43
2018-05-23T13:35:26.174Z,24.77
2018-05-23T13:37:55.810Z,26.30
2018-05-23T13:40:28.464Z,26.63
2018-05-23T13:43:00.545Z,29.90
2018-05-23T13:45:42.066Z,34.27
2018-05-23T13:51:03.153Z,31.53
2018-05-23T13:53:44.702Z,31.97
2018-05-23T13:56:24.788Z,34.87
2018-05-23T13:58:58.425Z,38.00
2018-05-23T14:01:25.945Z,34.43
2018-05-23T14:03:55.183Z,33.93
2018-05-23T14:06:26.657Z,35.10
2018-05-23T14:09:02.353Z,34.53
2018-05-23T14:11:46.368Z,37.60
2018-05-23T14:14:19.107Z,38.23
2018-05-23T14:19:46.589Z,38.30
2018-05-23T14:22:27.493Z,38.67
2018-05-23T14:24:55.944Z,37.30
2018-05-23T14:27:31.100Z,37.93
2018-05-23T14:30:04.959Z,36.07
2018-05-23T14:32:40.758Z,39.23
2018-05-23T14:35:09.174Z,37.53
2018-05-23T14:37:39.988Z,35.10
2018-05-23T14:40:11.102Z,39.03
2018-05-23T14:42:38.629Z,34.73
2018-05-23T14:45:14.004Z,33.93
2018-05-23T14:47:45.478Z,35.40
2018-05-23T14:50:14.160Z,34.47
2018-05-23T14:52:53.249Z,35.53
2018-05-23T14:55:25.684Z,41.50
2018-05-23T14:58:00.143Z,36.37
2018-05-23T15:00:34.998Z,38.07
2018-05-23T15:03:12.398Z,33.07
2018-05-23T15:05:40.070Z,33.97
2018-05-23T15:08:11.534Z,31.63
2018-05-23T15:10:39.047Z,34.03
2018-05-23T15:13:19.286Z,34.17
2018-05-23T15:15:53.088Z,32.73
2018-05-23T15:18:35.627Z,29.67
2018-05-23T15:21:08.192Z,24.87
2018-05-23T15:23:41.445Z,24.37
2018-05-23T15:26:09.821Z,23.83
2018-05-23T15:28:38.583Z,17.40
2018-05-23T15:31:12.857Z,15.33
2018-05-23T15:33:41.433Z,26.43
2018-05-23T15:39:03.747Z,19.87
2018-05-23T15:41:34.536Z,21.83
2018-05-23T15:44:03.205Z,24.00
2018-05-23T15:46:35.275Z,24.90
2018-05-23T15:49:03.245Z,20.10
2018-05-23T15:51:34.790Z,14.60
2018-05-23T15:54:18.412Z,12.07
2018-05-23T15:56:49.715Z,10.37
2018-05-23T15:59:23.283Z,10.37
2018-05-23T16:01:52.863Z,10.43
2018-05-23T16:04:21.556Z,10.67
2018-05-23T16:06:50.260Z,11.90
2018-05-23T16:09:19.884Z,9.30
2018-05-23T16:11:49.547Z,7.80
2018-05-23T16:14:19.112Z,9.70
2018-05-23T16:16:53.032Z,7.80
2018-05-23T16:19:25.983Z,7.50
2018-05-23T16:21:57.532Z,8.33
2018-05-23T16:24:27.834Z,8.63
2018-05-23T16:27:03.685Z,7.40
2018-05-23T16:29:33.328Z,6.40
2018-05-23T16:32:11.194Z,6.67
2018-05-23T16:35:02.058Z,7.20
2018-05-23T16:37:35.579Z,8.33
2018-05-23T16:40:05.285Z,6.57
2018-05-23T16:42:34.010Z,7.33
2018-05-23T16:45:11.792Z,6.80
2018-05-23T16:47:43.879Z,7.10
2018-05-23T16:50:19.344Z,5.83
2018-05-23T16:52:52.639Z,5.30
2018-05-23T16:57:52.481Z,6.20
2018-05-23T17:00:21.164Z,5.17
2018-05-23T17:02:48.744Z,6.73
2018-05-23T17:05:22.836Z,5.13
2018-05-23T17:07:54.048Z,6.00
2018-05-23T17:10:22.678Z,6.13
2018-05-23T17:12:50.197Z,7.93
2018-05-23T17:15:23.527Z,7.70
2018-05-23T17:20:47.579Z,8.10
2018-05-23T17:23:17.128Z,7.53
2018-05-23T17:25:54.646Z,7.80
2018-05-23T17:28:23.821Z,7.23
2018-05-23T17:30:52.398Z,8.13
2018-05-23T17:33:19.997Z,8.00
2018-05-23T17:35:47.630Z,7.33
2018-05-23T17:38:15.235Z,9.27
2018-05-23T17:40:44.119Z,7.00
2018-05-23T17:43:11.896Z,9.80
2018-05-23T17:45:44.640Z,10.07
2018-05-23T17:48:15.499Z,11.37
2018-05-23T17:50:48.850Z,9.60
2018-05-23T17:53:18.347Z,9.07
2018-05-23T17:55:49.956Z,9.20
2018-05-23T17:58:23.427Z,8.00
2018-05-23T18:00:56.360Z,8.87
2018-05-23T18:03:27.479Z,9.87
2018-05-23T18:06:15.704Z,9.37
2018-05-23T18:08:53.160Z,11.93
2018-05-23T18:11:27.843Z,10.23
2018-05-23T18:14:06.096Z,15.47
2018-05-23T18:16:39.748Z,11.23
2018-05-23T18:19:08.455Z,11.03
2018-05-23T18:21:39.417Z,11.03
2018-05-23T18:24:08.000Z,10.70
2018-05-23T18:26:35.743Z,12.57
2018-05-23T18:29:04.454Z,10.37
2018-05-23T18:31:39.036Z,13.33
2018-05-23T18:34:06.861Z,10.13
2018-05-23T18:36:36.333Z,11.60
2018-05-23T18:39:11.510Z,12.63
2018-05-23T18:41:43.207Z,12.30
2018-05-23T18:44:12.509Z,14.63
2018-05-23T18:46:42.780Z,12.23
2018-05-23T18:49:11.106Z,12.53
2018-05-23T18:51:41.221Z,16.87
2018-05-23T18:54:09.337Z,19.27
2018-05-23T18:56:39.700Z,12.93
2018-05-23T18:59:08.381Z,15.33
2018-05-23T19:01:36.113Z,16.43
2018-05-23T19:04:06.903Z,14.13
2018-05-23T19:06:38.203Z,16.23
2018-05-23T19:09:07.184Z,14.17
2018-05-23T19:11:34.968Z,16.07
2018-05-23T19:14:04.617Z,17.37
2018-05-23T19:16:36.596Z,17.40
2018-05-23T19:19:09.484Z,17.87
2018-05-23T19:21:41.118Z,18.50
2018-05-23T19:24:08.867Z,17.43
2018-05-23T19:26:36.597Z,16.73
2018-05-23T19:29:07.810Z,16.13
2018-05-23T19:31:35.407Z,17.90
2018-05-23T19:34:06.299Z,16.53
2018-05-23T19:36:35.826Z,17.77
2018-05-23T19:39:04.524Z,15.30
2018-05-23T19:41:44.829Z,13.83
2018-05-23T19:44:13.689Z,16.47
2018-05-23T19:46:47.886Z,18.03
2018-05-23T19:49:20.323Z,14.03
2018-05-23T19:51:50.066Z,10.73
2018-05-23T19:54:28.274Z,11.07
2018-05-23T19:56:57.954Z,10.03
2018-05-23T19:59:27.485Z,9.77
2018-05-23T20:01:55.014Z,11.10
2018-05-23T20:04:24.269Z,10.37
2018-05-23T20:07:11.767Z,9.30
2018-05-23T20:09:39.459Z,11.47
2018-05-23T20:12:17.660Z,11.93
2018-05-23T20:14:48.835Z,11.37
2018-05-23T20:17:30.040Z,12.13
2018-05-23T20:20:01.562Z,11.27
2018-05-23T20:22:33.615Z,14.17
2018-05-23T20:25:01.121Z,8.07
2018-05-23T20:27:31.894Z,8.53
2018-05-23T20:30:10.421Z,8.60
2018-05-23T20:32:51.630Z,9.30
2018-05-23T20:35:20.100Z,11.10
2018-05-23T20:37:48.768Z,9.10
2018-05-23T20:40:19.981Z,9.77
2018-05-23T20:42:48.618Z,14.27
2018-05-23T20:45:20.656Z,9.37
2018-05-23T20:47:53.233Z,12.37
2018-05-23T20:50:25.423Z,8.67
2018-05-23T20:52:54.441Z,7.63
2018-05-23T20:55:29.869Z,8.57
2018-05-23T20:57:57.386Z,9.43
2018-05-23T21:00:26.000Z,13.53
2018-05-23T21:02:53.537Z,10.10
2018-05-23T21:05:22.190Z,7.87
2018-05-23T21:07:51.442Z,9.47
2018-05-23T21:10:30.598Z,9.07
2018-05-23T21:12:59.275Z,8.97
2018-05-23T21:15:30.756Z,9.17
2018-05-23T21:18:06.571Z,9.83
2018-05-23T21:20:34.251Z,9.73
2018-05-23T21:23:03.856Z,7.90
2018-05-23T21:25:33.445Z,10.20
2018-05-23T21:28:00.972Z,9.93
2018-05-23T21:30:28.696Z,9.47
2018-05-23T21:32:56.227Z,10.00
2018-05-23T21:35:25.741Z,9.77
2018-05-23T21:37:54.413Z,9.00
2018-05-23T21:40:26.507Z,12.97
2018-05-23T21:42:57.649Z,10.30
2018-05-23T21:45:30.404Z,10.70
2018-05-23T21:48:01.158Z,11.60
2018-05-23T21:50:30.783Z,11.27
2018-05-23T21:53:04.054Z,11.43
2018-05-23T21:55:37.089Z,10.77
2018-05-23T21:58:04.900Z,14.83
2018-05-23T22:00:32.774Z,12.03
2018-05-23T22:03:03.598Z,10.27
2018-05-23T22:05:32.999Z,14.40
2018-05-23T22:08:13.616Z,11.00
2018-05-23T22:10:43.666Z,11.70
2018-05-23T22:13:15.682Z,10.67
2018-05-23T22:15:48.371Z,15.10
2018-05-23T22:18:16.810Z,10.47
2018-05-23T22:20:44.259Z,10.53
2018-05-23T22:23:11.965Z,10.27
2018-05-23T22:25:39.475Z,12.03
2018-05-23T22:28:08.095Z,9.23
2018-05-23T22:30:36.855Z,8.90
2018-05-23T22:33:10.048Z,13.93
2018-05-23T22:35:38.498Z,10.97
2018-05-23T22:38:05.985Z,9.90
2018-05-23T22:40:38.916Z,8.87
2018-05-23T22:43:08.525Z,9.90
2018-05-23T22:45:44.576Z,13.27
2018-05-23T22:48:17.885Z,13.07
2018-05-23T22:50:45.399Z,9.30
2018-05-23T22:53:13.104Z,10.67
2018-05-23T22:55:45.501Z,11.53
2018-05-23T22:58:15.753Z,11.27
2018-05-23T23:00:44.392Z,12.37
2018-05-23T23:03:11.906Z,11.73
2018-05-23T23:05:40.536Z,10.17
2018-05-23T23:08:12.568Z,11.47
2018-05-23T23:10:45.867Z,9.93
2018-05-23T23:13:19.801Z,11.00
2018-05-23T23:15:51.866Z,11.77
2018-05-23T23:18:38.022Z,10.63
2018-05-23T23:21:05.581Z,11.60
2018-05-23T23:23:34.275Z,11.13
2018-05-23T23:26:12.390Z,12.23
2018-05-23T23:28:54.582Z,11.63
2018-05-23T23:31:22.100Z,11.17
2018-05-23T23:33:49.599Z,10.03
2018-05-23T23:36:17.367Z,11.73
2018-05-23T23:38:46.022Z,11.00
2018-05-23T23:41:14.692Z,10.50
2018-05-23T23:43:47.094Z,16.07
2018-05-23T23:46:15.135Z,9.30
2018-05-23T23:48:42.637Z,12.67
2018-05-23T23:51:10.380Z,9.90
2018-05-23T23:53:38.765Z,12.90
2018-05-23T23:56:10.193Z,27.90
2018-05-23T23:58:37.693Z,11.60
